createdAt,value
2023-05-22T00:01:32.908Z,49.52
2023-05-22T00:03:59.838Z,49.69
2023-05-22T00:06:27.495Z,49.57
2023-05-22T00:08:53.967Z,49.83
2023-05-22T00:11:21.064Z,49.65
2023-05-22T00:13:47.524Z,49.81
2023-05-22T00:16:14.008Z,49.86
2023-05-22T00:18:44.577Z,49.60
2023-05-22T00:21:11.307Z,49.77
2023-05-22T00:23:37.829Z,49.86
2023-05-22T00:26:04.397Z,49.71
2023-05-22T00:28:30.880Z,49.78
2023-05-22T00:30:57.426Z,49.91
2023-05-22T00:33:24.347Z,49.78
2023-05-22T00:35:51.292Z,49.84
2023-05-22T00:38:29.700Z,49.80
2023-05-22T00:40:56.672Z,50.02
2023-05-22T00:43:23.190Z,49.75
2023-05-22T00:45:49.662Z,49.77
2023-05-22T00:48:16.190Z,49.87
2023-05-22T00:50:43.011Z,49.88
2023-05-22T00:53:10.592Z,49.93
2023-05-22T00:55:37.209Z,49.87
2023-05-22T00:58:07.696Z,49.94
2023-05-22T01:00:36.865Z,50.07
2023-05-22T01:03:07.869Z,49.99
2023-05-22T01:05:34.707Z,50.09
2023-05-22T01:08:01.317Z,49.97
2023-05-22T01:10:29.057Z,49.90
2023-05-22T01:13:04.564Z,50.06
2023-05-22T01:15:47.312Z,50.01
2023-05-22T01:18:25.067Z,50.15
2023-05-22T01:20:58.218Z,49.94
2023-05-22T01:23:41.324Z,50.15
2023-05-22T01:26:46.117Z,50.06
2023-05-22T01:29:15.578Z,50.20
2023-05-22T01:31:46.310Z,50.11
2023-05-22T01:34:14.321Z,50.08
2023-05-22T01:36:42.514Z,50.10
2023-05-22T01:39:09.629Z,49.93
2023-05-22T01:41:36.238Z,50.06
2023-05-22T01:44:03.452Z,50.24
2023-05-22T01:46:30.539Z,50.22
2023-05-22T01:48:58.000Z,50.23
2023-05-22T01:51:51.958Z,50.08
2023-05-22T01:54:30.205Z,50.09
2023-05-22T01:57:12.104Z,50.04
2023-05-22T01:59:49.588Z,50.18
2023-05-22T02:02:18.778Z,50.25
2023-05-22T02:04:56.810Z,50.05
2023-05-22T02:07:27.741Z,50.22
2023-05-22T02:09:56.633Z,50.01
2023-05-22T02:12:24.511Z,50.02
2023-05-22T02:14:51.280Z,50.30
2023-05-22T02:17:18.306Z,49.95
2023-05-22T02:19:45.195Z,50.32
2023-05-22T02:22:13.762Z,50.18
2023-05-22T02:24:46.744Z,50.09
2023-05-22T02:27:14.234Z,49.91
2023-05-22T02:29:40.905Z,50.23
2023-05-22T02:32:08.296Z,49.97
2023-05-22T02:34:35.047Z,50.37
2023-05-22T02:37:04.932Z,50.14
2023-05-22T02:39:31.589Z,50.18
2023-05-22T02:41:58.182Z,50.07
2023-05-22T02:44:24.689Z,50.29
2023-05-22T02:46:51.336Z,50.19
2023-05-22T02:49:18.673Z,50.21
2023-05-22T02:51:47.630Z,50.23
2023-05-22T02:54:15.913Z,50.18
2023-05-22T02:56:43.361Z,50.09
2023-05-22T02:59:10.527Z,50.03
2023-05-22T03:01:38.706Z,49.99
2023-05-22T03:04:06.652Z,50.30
2023-05-22T03:06:35.117Z,50.01
2023-05-22T03:09:03.989Z,49.99
2023-05-22T03:11:31.267Z,50.11
2023-05-22T03:13:57.795Z,50.02
2023-05-22T03:16:24.957Z,50.25
2023-05-22T03:18:52.179Z,50.30
2023-05-22T03:21:19.121Z,50.22
2023-05-22T03:23:47.093Z,50.27
2023-05-22T03:26:13.618Z,50.31
2023-05-22T03:28:40.639Z,50.01
2023-05-22T03:31:09.261Z,50.20
2023-05-22T03:33:47.512Z,50.34
2023-05-22T03:36:14.919Z,50.15
2023-05-22T03:38:41.439Z,50.07
2023-05-22T03:41:08.118Z,50.20
2023-05-22T03:43:34.577Z,50.21
2023-05-22T03:46:01.543Z,50.36
2023-05-22T03:48:28.036Z,50.26
2023-05-22T03:50:54.629Z,50.32
2023-05-22T03:53:21.213Z,50.28
2023-05-22T03:55:47.747Z,50.42
2023-05-22T03:58:14.534Z,50.30
2023-05-22T04:00:42.449Z,50.34
2023-05-22T04:03:13.238Z,50.38
2023-05-22T04:05:40.039Z,50.30
2023-05-22T04:08:06.504Z,50.48
2023-05-22T04:10:33.161Z,50.34
2023-05-22T04:12:59.702Z,50.37
2023-05-22T04:15:26.482Z,50.62
2023-05-22T04:17:54.517Z,50.68
2023-05-22T04:20:22.220Z,50.58
2023-05-22T04:22:50.720Z,50.50
2023-05-22T04:25:17.415Z,50.55
2023-05-22T04:27:44.273Z,50.44
2023-05-22T04:30:10.868Z,50.38
2023-05-22T04:32:38.709Z,50.57
2023-05-22T04:35:05.624Z,50.68
2023-05-22T04:37:32.159Z,50.65
2023-05-22T04:40:05.856Z,50.62
2023-05-22T04:42:34.459Z,50.52
2023-05-22T04:45:01.392Z,50.78
2023-05-22T04:47:31.680Z,50.58
2023-05-22T04:50:02.534Z,50.56
2023-05-22T04:52:29.061Z,50.73
2023-05-22T04:54:55.674Z,50.65
2023-05-22T04:57:25.406Z,50.72
2023-05-22T04:59:54.183Z,50.70
2023-05-22T05:02:20.778Z,50.73
2023-05-22T05:04:48.279Z,50.61
2023-05-22T05:07:17.536Z,51.00
2023-05-22T05:09:44.408Z,50.75
2023-05-22T05:12:11.085Z,51.08
2023-05-22T05:14:37.648Z,50.92
2023-05-22T05:17:04.596Z,50.89
2023-05-22T05:19:35.488Z,50.76
2023-05-22T05:22:04.569Z,50.87
2023-05-22T05:24:31.284Z,50.94
2023-05-22T05:26:58.932Z,50.83
2023-05-22T05:29:26.215Z,50.98
2023-05-22T05:32:02.087Z,51.03
2023-05-22T05:34:45.134Z,51.14
2023-05-22T05:37:26.294Z,51.08
2023-05-22T05:39:56.448Z,51.01
2023-05-22T05:42:23.363Z,50.95
2023-05-22T05:44:50.136Z,51.02
2023-05-22T05:47:17.950Z,50.73
2023-05-22T05:49:44.439Z,51.04
2023-05-22T05:52:12.795Z,50.72
2023-05-22T05:54:39.309Z,50.92
2023-05-22T05:57:14.602Z,50.59
2023-05-22T05:59:41.133Z,50.72
2023-05-22T06:02:37.681Z,50.71
2023-05-22T06:05:06.189Z,50.86
2023-05-22T06:07:38.056Z,50.63
2023-05-22T06:10:10.845Z,50.58
2023-05-22T06:12:44.459Z,50.79
2023-05-22T06:15:13.129Z,50.54
2023-05-22T06:17:39.665Z,50.77
2023-05-22T06:20:07.381Z,50.79
2023-05-22T06:22:35.728Z,50.65
2023-05-22T06:25:02.851Z,50.92
2023-05-22T06:27:32.768Z,50.74
2023-05-22T06:30:00.510Z,50.77
2023-05-22T06:32:31.286Z,50.69
2023-05-22T06:35:03.459Z,50.52
2023-05-22T06:37:33.022Z,50.65
2023-05-22T06:40:00.977Z,50.56
2023-05-22T06:42:45.597Z,50.77
2023-05-22T06:45:32.948Z,50.42
2023-05-22T06:48:34.313Z,50.71
2023-05-22T06:51:11.602Z,50.44
2023-05-22T06:53:41.718Z,50.22
2023-05-22T06:56:13.883Z,50.64
2023-05-22T06:58:52.035Z,50.68
2023-05-22T07:01:20.719Z,50.39
2023-05-22T07:04:01.644Z,50.55
2023-05-22T07:06:42.318Z,50.54
2023-05-22T07:09:14.178Z,50.42
2023-05-22T07:11:44.091Z,50.29
2023-05-22T07:14:12.808Z,50.26
2023-05-22T07:16:42.409Z,50.34
2023-05-22T07:19:10.425Z,50.30
2023-05-22T07:21:37.297Z,50.33
2023-05-22T07:24:08.071Z,50.15
2023-05-22T07:26:37.969Z,50.31
2023-05-22T07:29:08.799Z,50.28
2023-05-22T07:31:35.416Z,50.14
2023-05-22T07:34:02.190Z,50.23
2023-05-22T07:36:31.763Z,50.29
2023-05-22T07:38:58.208Z,50.29
2023-05-22T07:41:25.643Z,50.25
2023-05-22T07:43:52.407Z,50.62
2023-05-22T07:46:23.276Z,50.54
2023-05-22T07:49:07.213Z,50.75
2023-05-22T07:51:34.851Z,50.47
2023-05-22T07:54:01.397Z,50.45
2023-05-22T07:56:27.945Z,50.53
2023-05-22T07:58:56.168Z,50.36
2023-05-22T08:01:23.526Z,50.30
2023-05-22T08:03:50.240Z,50.30
2023-05-22T08:06:17.780Z,50.31
2023-05-22T08:08:44.296Z,50.51
2023-05-22T08:11:11.043Z,50.15
2023-05-22T08:13:38.696Z,50.18
2023-05-22T08:16:05.621Z,50.20
2023-05-22T08:18:32.111Z,50.23
2023-05-22T08:21:00.168Z,50.26
2023-05-22T08:23:26.744Z,50.49
2023-05-22T08:25:53.403Z,50.30
2023-05-22T08:28:19.864Z,50.12
2023-05-22T08:30:46.369Z,50.00
2023-05-22T08:33:12.882Z,50.06
2023-05-22T08:35:39.426Z,49.96
2023-05-22T08:38:06.136Z,49.96
2023-05-22T08:40:40.262Z,49.95
2023-05-22T08:43:07.920Z,50.09
2023-05-22T08:45:34.617Z,49.96
2023-05-22T08:48:05.988Z,49.88
2023-05-22T08:50:34.698Z,49.93
2023-05-22T08:53:04.057Z,49.72
2023-05-22T08:55:30.891Z,49.71
2023-05-22T08:57:58.306Z,49.60
2023-05-22T09:00:24.975Z,49.57
2023-05-22T09:02:52.418Z,49.60
2023-05-22T09:05:19.421Z,49.80
2023-05-22T09:07:45.916Z,49.72
2023-05-22T09:10:12.415Z,49.59
2023-05-22T09:12:38.876Z,49.37
2023-05-22T09:15:10.423Z,49.20
2023-05-22T09:17:41.044Z,49.42
2023-05-22T09:20:10.095Z,49.27
2023-05-22T09:22:38.280Z,49.07
2023-05-22T09:25:05.464Z,49.11
2023-05-22T09:27:32.007Z,49.13
2023-05-22T09:29:58.794Z,49.07
2023-05-22T09:32:29.395Z,48.87
2023-05-22T09:35:03.571Z,49.13
2023-05-22T09:37:34.176Z,48.57
2023-05-22T09:40:05.917Z,49.01
2023-05-22T09:42:35.759Z,48.75
2023-05-22T09:45:06.518Z,48.56
2023-05-22T09:47:36.988Z,48.62
2023-05-22T09:50:06.999Z,48.50
2023-05-22T09:52:34.971Z,48.08
2023-05-22T09:55:08.795Z,48.54
2023-05-22T09:57:48.261Z,47.90
2023-05-22T10:00:18.305Z,48.23
2023-05-22T10:02:47.795Z,47.77
2023-05-22T10:05:33.723Z,47.98
2023-05-22T10:08:10.355Z,47.79
2023-05-22T10:10:39.285Z,47.80
2023-05-22T10:13:08.903Z,47.55
2023-05-22T10:15:35.913Z,47.36
2023-05-22T10:18:03.128Z,47.70
2023-05-22T10:20:30.859Z,47.71
2023-05-22T10:22:57.428Z,46.89
2023-05-22T10:25:23.978Z,47.50
2023-05-22T10:27:53.555Z,47.17
2023-05-22T10:30:44.370Z,47.62
2023-05-22T10:33:41.968Z,47.04
2023-05-22T10:36:13.975Z,47.00
2023-05-22T10:38:54.251Z,46.34
2023-05-22T10:41:22.338Z,47.15
2023-05-22T10:43:50.922Z,47.09
2023-05-22T10:46:18.275Z,46.51
2023-05-22T10:48:46.702Z,46.63
2023-05-22T10:51:14.680Z,46.07
2023-05-22T10:53:43.520Z,45.97
2023-05-22T10:56:15.475Z,45.84
2023-05-22T10:58:55.813Z,45.47
2023-05-22T11:01:26.190Z,46.17
2023-05-22T11:04:14.246Z,45.35
2023-05-22T11:06:49.025Z,45.74
2023-05-22T11:09:28.745Z,46.31
2023-05-22T11:12:18.275Z,45.22
2023-05-22T11:14:50.539Z,45.91
2023-05-22T11:17:20.231Z,45.49
2023-05-22T11:20:08.191Z,45.48
2023-05-22T11:22:43.805Z,44.91
2023-05-22T11:25:14.927Z,45.03
2023-05-22T11:27:41.671Z,45.54
2023-05-22T11:30:12.744Z,44.78
2023-05-22T11:32:43.715Z,44.77
2023-05-22T11:35:18.329Z,44.65
2023-05-22T11:37:45.888Z,45.18
2023-05-22T11:40:26.611Z,44.64
2023-05-22T11:42:53.720Z,44.77
2023-05-22T11:45:20.487Z,44.48
2023-05-22T11:47:48.462Z,44.21
2023-05-22T11:50:17.907Z,44.14
2023-05-22T11:52:50.052Z,44.44
2023-05-22T11:55:16.596Z,44.69
2023-05-22T11:57:44.170Z,43.94
2023-05-22T12:00:11.869Z,44.37
2023-05-22T12:02:39.054Z,43.57
2023-05-22T12:05:06.748Z,43.67
2023-05-22T12:07:33.257Z,43.24
2023-05-22T12:10:01.048Z,43.52
2023-05-22T12:12:27.713Z,43.63
2023-05-22T12:14:54.167Z,43.31
2023-05-22T12:17:20.692Z,43.27
2023-05-22T12:19:48.911Z,43.01
2023-05-22T12:22:15.628Z,42.95
2023-05-22T12:24:47.013Z,43.02
2023-05-22T12:27:14.738Z,43.21
2023-05-22T12:29:42.851Z,43.49
2023-05-22T12:32:11.600Z,42.69
2023-05-22T12:34:46.601Z,42.16
2023-05-22T12:37:25.134Z,42.16
2023-05-22T12:39:59.236Z,42.83
2023-05-22T12:42:26.425Z,43.22
2023-05-22T12:44:54.502Z,42.66
2023-05-22T12:47:23.602Z,42.76
2023-05-22T12:49:51.059Z,43.26
2023-05-22T12:52:18.010Z,43.00
2023-05-22T12:54:44.561Z,42.90
2023-05-22T12:57:11.059Z,43.01
2023-05-22T12:59:37.478Z,42.96
2023-05-22T13:02:05.472Z,42.24
2023-05-22T13:04:32.298Z,42.83
2023-05-22T13:06:58.876Z,42.72
2023-05-22T13:09:25.498Z,43.17
2023-05-22T13:11:52.508Z,42.57
2023-05-22T13:14:19.041Z,42.61
2023-05-22T13:16:45.497Z,42.72
2023-05-22T13:19:12.076Z,42.57
2023-05-22T13:21:38.635Z,41.81
2023-05-22T13:24:05.314Z,42.47
2023-05-22T13:26:31.795Z,42.84
2023-05-22T13:28:58.335Z,42.56
2023-05-22T13:31:24.949Z,42.64
2023-05-22T13:33:51.647Z,42.25
2023-05-22T13:36:18.681Z,42.40
2023-05-22T13:38:45.181Z,42.14
2023-05-22T13:41:11.779Z,43.03
2023-05-22T13:43:38.213Z,42.93
2023-05-22T13:46:04.969Z,42.28
2023-05-22T13:48:31.437Z,42.11
2023-05-22T13:50:57.890Z,41.83
2023-05-22T13:53:24.350Z,42.09
2023-05-22T13:55:51.048Z,43.14
2023-05-22T13:58:17.545Z,43.01
2023-05-22T14:00:44.268Z,41.91
2023-05-22T14:03:11.669Z,41.84
2023-05-22T14:05:38.555Z,42.22
2023-05-22T14:08:05.361Z,41.31
2023-05-22T14:10:31.991Z,41.41
2023-05-22T14:12:58.494Z,42.09
2023-05-22T14:15:25.112Z,41.65
2023-05-22T14:17:51.696Z,41.80
2023-05-22T14:20:18.302Z,42.11
2023-05-22T14:22:56.329Z,41.72
2023-05-22T14:25:24.756Z,41.43
2023-05-22T14:27:51.276Z,41.35
2023-05-22T14:30:17.919Z,41.06
2023-05-22T14:32:46.090Z,41.24
2023-05-22T14:35:13.624Z,41.85
2023-05-22T14:37:40.769Z,42.01
2023-05-22T14:40:08.758Z,41.99
2023-05-22T14:42:36.473Z,41.64
2023-05-22T14:45:04.185Z,42.07
2023-05-22T14:47:31.068Z,42.13
2023-05-22T14:50:06.677Z,42.25
2023-05-22T14:52:41.410Z,42.39
2023-05-22T14:55:08.712Z,42.30
2023-05-22T14:57:35.675Z,42.33
2023-05-22T15:00:02.221Z,42.70
2023-05-22T15:02:29.237Z,42.64
2023-05-22T15:04:56.093Z,43.10
2023-05-22T15:07:29.309Z,42.67
2023-05-22T15:10:02.304Z,42.07
2023-05-22T15:12:28.848Z,42.62
2023-05-22T15:14:55.341Z,42.59
2023-05-22T15:17:22.197Z,42.58
2023-05-22T15:19:49.608Z,42.18
2023-05-22T15:22:19.778Z,42.74
2023-05-22T15:25:04.195Z,41.86
2023-05-22T15:27:31.082Z,42.20
2023-05-22T15:29:57.850Z,42.67
2023-05-22T15:32:24.466Z,42.46
2023-05-22T15:34:51.665Z,42.84
2023-05-22T15:37:18.379Z,42.59
2023-05-22T15:39:44.920Z,42.09
2023-05-22T15:42:11.486Z,41.93
2023-05-22T15:44:37.992Z,42.75
2023-05-22T15:47:04.441Z,43.09
2023-05-22T15:49:31.520Z,42.42
2023-05-22T15:51:58.517Z,42.51
2023-05-22T15:54:25.043Z,42.96
2023-05-22T15:56:51.553Z,42.67
2023-05-22T15:59:18.060Z,43.10
2023-05-22T16:01:44.860Z,42.86
2023-05-22T16:04:12.006Z,42.82
2023-05-22T16:06:38.504Z,42.24
2023-05-22T16:09:05.876Z,43.04
2023-05-22T16:11:33.318Z,43.78
2023-05-22T16:13:59.808Z,43.60
2023-05-22T16:16:26.341Z,44.95
2023-05-22T16:18:52.890Z,44.33
2023-05-22T16:21:19.733Z,44.92
2023-05-22T16:23:46.333Z,45.19
2023-05-22T16:26:12.809Z,45.35
2023-05-22T16:28:39.286Z,45.78
2023-05-22T16:31:06.288Z,45.96
2023-05-22T16:33:34.366Z,46.23
2023-05-22T16:36:00.832Z,46.92
2023-05-22T16:38:27.299Z,47.54
2023-05-22T16:40:54.934Z,47.62
2023-05-22T16:43:22.108Z,48.27
2023-05-22T16:45:51.013Z,48.02
2023-05-22T16:48:18.135Z,48.28
2023-05-22T16:50:46.823Z,47.98
2023-05-22T16:53:16.664Z,48.28
2023-05-22T16:55:43.507Z,48.55
2023-05-22T16:58:11.694Z,48.54
2023-05-22T17:00:39.905Z,49.24
2023-05-22T17:03:08.113Z,48.91
2023-05-22T17:05:36.610Z,48.71
2023-05-22T17:08:03.261Z,49.14
2023-05-22T17:10:29.929Z,48.95
2023-05-22T17:12:56.549Z,49.10
2023-05-22T17:15:23.030Z,49.26
2023-05-22T17:17:49.788Z,49.49
2023-05-22T17:20:16.749Z,49.49
2023-05-22T17:22:43.422Z,49.87
2023-05-22T17:25:10.200Z,49.17
2023-05-22T17:27:37.080Z,49.45
2023-05-22T17:30:05.533Z,49.42
2023-05-22T17:32:32.373Z,49.97
2023-05-22T17:34:59.325Z,49.51
2023-05-22T17:37:25.802Z,49.38
2023-05-22T17:39:52.267Z,49.65
2023-05-22T17:42:19.051Z,49.61
2023-05-22T17:44:45.842Z,49.90
2023-05-22T17:47:13.419Z,50.00
2023-05-22T17:49:40.025Z,49.68
2023-05-22T17:52:08.460Z,50.44
2023-05-22T17:54:35.623Z,50.32
2023-05-22T17:57:04.106Z,50.72
2023-05-22T17:59:32.501Z,50.62
2023-05-22T18:01:59.162Z,50.80
2023-05-22T18:04:26.087Z,50.78
2023-05-22T18:06:52.668Z,50.72
2023-05-22T18:09:19.180Z,50.66
2023-05-22T18:11:45.705Z,50.76
2023-05-22T18:14:12.189Z,50.79
2023-05-22T18:16:38.736Z,51.40
2023-05-22T18:19:05.511Z,51.38
2023-05-22T18:21:32.270Z,50.79
2023-05-22T18:23:58.978Z,50.85
2023-05-22T18:26:29.330Z,51.13
2023-05-22T18:28:56.428Z,51.11
2023-05-22T18:31:22.964Z,50.97
2023-05-22T18:33:49.673Z,50.96
2023-05-22T18:36:16.180Z,51.14
2023-05-22T18:38:42.853Z,50.91
2023-05-22T18:41:09.436Z,50.95
2023-05-22T18:43:36.000Z,51.08
2023-05-22T18:46:02.462Z,51.34
2023-05-22T18:48:30.755Z,51.32
2023-05-22T18:50:58.213Z,51.29
2023-05-22T18:53:25.927Z,51.33
2023-05-22T18:55:53.755Z,51.60
2023-05-22T18:58:20.708Z,51.86
2023-05-22T19:00:47.422Z,52.00
2023-05-22T19:03:14.582Z,52.36
2023-05-22T19:05:41.525Z,52.20
2023-05-22T19:08:08.097Z,52.91
2023-05-22T19:10:34.707Z,52.53
2023-05-22T19:13:01.445Z,52.55
2023-05-22T19:15:28.137Z,52.09
2023-05-22T19:17:54.865Z,52.01
2023-05-22T19:20:22.891Z,51.90
2023-05-22T19:22:50.941Z,52.49
2023-05-22T19:25:18.315Z,52.02
2023-05-22T19:27:45.068Z,52.91
2023-05-22T19:30:15.069Z,52.35
2023-05-22T19:32:43.518Z,52.48
2023-05-22T19:35:11.398Z,52.36
2023-05-22T19:37:38.159Z,52.01
2023-05-22T19:40:05.969Z,51.75
2023-05-22T19:42:33.112Z,51.90
2023-05-22T19:44:59.870Z,52.12
2023-05-22T19:47:27.262Z,52.00
2023-05-22T19:49:53.913Z,52.01
2023-05-22T19:52:20.698Z,51.85
2023-05-22T19:54:47.413Z,52.23
2023-05-22T19:57:14.063Z,52.11
2023-05-22T19:59:40.720Z,52.24
2023-05-22T20:02:07.388Z,52.04
2023-05-22T20:04:34.416Z,52.46
2023-05-22T20:07:02.358Z,52.33
2023-05-22T20:09:29.234Z,52.32
2023-05-22T20:11:56.067Z,52.18
2023-05-22T20:14:22.696Z,52.11
2023-05-22T20:16:49.376Z,52.37
2023-05-22T20:19:17.594Z,51.79
2023-05-22T20:21:44.278Z,52.36
2023-05-22T20:24:21.097Z,52.48
2023-05-22T20:26:48.034Z,52.65
2023-05-22T20:29:14.838Z,52.66
2023-05-22T20:31:41.719Z,52.63
2023-05-22T20:34:09.555Z,52.47
2023-05-22T20:36:36.570Z,52.62
2023-05-22T20:39:03.647Z,52.31
2023-05-22T20:41:30.254Z,52.62
2023-05-22T20:43:58.520Z,52.52
2023-05-22T20:46:26.510Z,52.66
2023-05-22T20:48:53.362Z,52.72
2023-05-22T20:51:20.816Z,52.43
2023-05-22T20:53:48.523Z,52.85
2023-05-22T20:56:15.257Z,52.86
2023-05-22T20:58:42.565Z,53.66
2023-05-22T21:01:09.805Z,53.68
2023-05-22T21:03:36.551Z,53.37
2023-05-22T21:06:03.430Z,53.19
2023-05-22T21:08:30.819Z,53.22
2023-05-22T21:10:57.472Z,53.10
2023-05-22T21:13:24.037Z,53.23
2023-05-22T21:15:51.310Z,53.34
2023-05-22T21:18:19.742Z,53.15
2023-05-22T21:20:46.701Z,53.27
2023-05-22T21:23:13.363Z,53.04
2023-05-22T21:25:40.078Z,52.70
2023-05-22T21:28:07.801Z,53.17
2023-05-22T21:30:34.693Z,53.10
2023-05-22T21:33:01.374Z,53.35
2023-05-22T21:35:28.075Z,53.40
2023-05-22T21:37:54.818Z,53.27
2023-05-22T21:40:21.455Z,53.52
2023-05-22T21:42:48.076Z,53.20
2023-05-22T21:45:14.874Z,53.58
2023-05-22T21:47:41.710Z,53.54
2023-05-22T21:50:08.853Z,53.60
2023-05-22T21:52:35.596Z,53.92
2023-05-22T21:55:02.585Z,53.75
2023-05-22T21:57:29.542Z,53.81
2023-05-22T21:59:56.153Z,53.59
2023-05-22T22:02:22.751Z,53.77
2023-05-22T22:04:49.307Z,53.82
2023-05-22T22:07:15.932Z,53.79
2023-05-22T22:09:42.671Z,53.93
2023-05-22T22:12:09.375Z,53.82
2023-05-22T22:14:35.959Z,54.04
2023-05-22T22:17:05.963Z,54.05
2023-05-22T22:19:34.353Z,54.29
2023-05-22T22:22:01.982Z,54.12
2023-05-22T22:24:29.772Z,54.31
2023-05-22T22:26:56.770Z,54.22
2023-05-22T22:29:23.452Z,54.29
2023-05-22T22:31:50.087Z,54.40
2023-05-22T22:34:16.634Z,53.95
2023-05-22T22:36:43.120Z,54.18
2023-05-22T22:39:10.593Z,54.14
2023-05-22T22:41:37.229Z,53.89
2023-05-22T22:44:03.899Z,54.10
2023-05-22T22:46:30.913Z,54.30
2023-05-22T22:48:58.800Z,54.42
2023-05-22T22:51:25.258Z,54.42
2023-05-22T22:53:51.732Z,54.47
2023-05-22T22:56:18.371Z,54.49
2023-05-22T22:58:44.825Z,54.57
2023-05-22T23:01:11.348Z,54.56
2023-05-22T23:03:38.076Z,54.44
2023-05-22T23:06:04.624Z,54.36
2023-05-22T23:08:31.155Z,54.66
2023-05-22T23:10:57.904Z,54.29
2023-05-22T23:13:24.423Z,54.54
2023-05-22T23:15:51.021Z,54.66
2023-05-22T23:18:17.741Z,54.53
2023-05-22T23:20:44.239Z,54.77
2023-05-22T23:23:10.783Z,54.53
2023-05-22T23:25:37.286Z,54.98
2023-05-22T23:28:03.789Z,54.99
2023-05-22T23:30:30.210Z,54.88
2023-05-22T23:32:56.724Z,54.87
2023-05-22T23:35:23.197Z,54.86
2023-05-22T23:37:49.692Z,54.76
2023-05-22T23:40:16.136Z,54.83
2023-05-22T23:42:42.610Z,54.78
2023-05-22T23:45:09.156Z,55.10
2023-05-22T23:47:35.714Z,54.88
2023-05-22T23:50:02.248Z,55.11
2023-05-22T23:52:28.722Z,55.19
2023-05-22T23:54:55.574Z,55.07
2023-05-22T23:57:22.125Z,54.99
2023-05-22T23:59:48.637Z,54.81
